Time;durP1;ratioP1;P1;durP2;ratioP2;P2;SDS_P1;SDS_P2;PMS_P1;PMS_P2;Temp;Humidity;BMP_temperature;BMP_pressure;BME280_temperature;BME280_humidity;BME280_pressure;Samples;Min_cycle;Max_cycle;Signal;HPM_P1;HPM_P2
2022/09/05 00:02:43;;;;;;;5.18;2.63;;;;;;;18.23;59.14;101766.81;5026401;28;20057;-73
2022/09/05 00:06:08;;;;;;;7.20;2.67;;;;;;;18.22;59.08;101772.19;5029340;28;20049;-74
2022/09/05 00:09:03;;;;;;;4.93;2.80;;;;;;;18.23;58.97;101774.81;5013425;28;20058;-75
2022/09/05 00:12:02;;;;;;;7.65;2.60;;;;;;;18.23;59.09;101772.13;5029675;28;20088;-75
2022/09/05 00:15:10;;;;;;;3.67;2.45;;;;;;;18.25;58.99;101769.38;5030992;28;20543;-74
2022/09/05 00:18:06;;;;;;;5.25;2.55;;;;;;;18.24;59.14;101768.53;5028552;28;20054;-73
2022/09/05 00:21:15;;;;;;;5.03;2.88;;;;;;;18.23;59.19;101773.91;5018683;28;20046;-74
2022/09/05 00:24:21;;;;;;;7.40;3.00;;;;;;;18.25;59.81;101766.72;5030618;28;20053;-74
2022/09/05 00:27:52;;;;;;;5.78;3.10;;;;;;;18.35;59.75;101773.34;5020840;28;20045;-73
2022/09/05 00:30:20;;;;;;;5.25;3.30;;;;;;;18.41;59.87;101769.50;5028836;28;20437;-73
2022/09/05 00:33:36;;;;;;;5.72;3.60;;;;;;;18.54;59.96;101770.66;5025971;28;20045;-73
2022/09/05 00:36:12;;;;;;;7.38;3.35;;;;;;;18.60;59.71;101766.81;5024276;28;20501;-73
2022/09/05 00:38:53;;;;;;;6.63;3.30;;;;;;;18.65;59.63;101763.91;5029747;28;20137;-73
2022/09/05 00:41:21;;;;;;;6.72;3.30;;;;;;;18.69;59.36;101766.34;5028661;28;20073;-73
2022/09/05 00:43:51;;;;;;;9.68;3.55;;;;;;;18.68;59.38;101758.41;5029479;28;20512;-73
2022/09/05 00:46:57;;;;;;;6.75;3.03;;;;;;;18.70;59.30;101762.75;5029119;28;20108;-73
2022/09/05 00:49:44;;;;;;;4.65;3.10;;;;;;;18.70;59.74;101757.41;5025217;28;20097;-74
2022/09/05 00:52:39;;;;;;;4.13;3.05;;;;;;;18.73;59.68;101756.38;5018943;28;20049;-74
2022/09/05 00:55:15;;;;;;;6.38;3.28;;;;;;;18.73;60.39;101751.88;5026301;28;20042;-73
2022/09/05 00:58:32;;;;;;;4.53;3.35;;;;;;;18.74;59.94;101750.94;5033363;28;20046;-73
2022/09/05 01:01:21;;;;;;;6.22;3.63;;;;;;;18.75;59.53;101754.50;5022902;28;20077;-74
2022/09/05 01:04:06;;;;;;;7.22;3.47;;;;;;;18.78;59.80;101751.66;5027074;28;20540;-74
2022/09/05 01:07:16;;;;;;;5.95;3.72;;;;;;;18.77;59.91;101752.63;5032345;28;20830;-75
2022/09/05 01:10:03;;;;;;;4.80;3.38;;;;;;;18.79;59.99;101753.38;5024910;28;20140;-73
2022/09/05 01:12:56;;;;;;;6.38;3.58;;;;;;;18.78;59.83;101749.88;5029544;28;20045;-73
2022/09/05 01:15:45;;;;;;;4.18;3.45;;;;;;;18.81;59.90;101754.19;5030207;28;20070;-72
2022/09/05 01:18:35;;;;;;;7.47;3.88;;;;;;;18.80;59.69;101746.25;5021388;28;20062;-73
2022/09/05 01:21:48;;;;;;;6.75;3.50;;;;;;;18.77;60.14;101748.13;5019125;28;20048;-72
2022/09/05 01:25:25;;;;;;;5.30;3.75;;;;;;;18.78;59.87;101751.66;5031479;28;20541;-73
2022/09/05 01:28:33;;;;;;;6.38;3.67;;;;;;;18.74;59.78;101745.59;5023550;28;20052;-73
2022/09/05 01:31:59;;;;;;;6.07;3.88;;;;;;;18.71;59.95;101747.56;5031114;28;20056;-74
2022/09/05 01:34:49;;;;;;;6.65;3.53;;;;;;;18.66;60.08;101753.16;5031832;28;20516;-74
2022/09/05 01:37:27;;;;;;;5.82;4.07;;;;;;;18.61;59.98;101744.50;5022139;28;20046;-74
2022/09/05 01:40:34;;;;;;;9.30;4.00;;;;;;;18.56;60.16;101758.09;5029237;28;20045;-75
2022/09/05 01:43:34;;;;;;;7.80;4.03;;;;;;;18.50;60.12;101750.38;5048209;28;20084;-76
2022/09/05 01:46:53;;;;;;;5.40;3.92;;;;;;;18.43;60.18;101748.94;5030952;28;20041;-74
2022/09/05 01:50:13;;;;;;;6.32;4.28;;;;;;;18.36;60.36;101747.53;5032367;28;20418;-75
2022/09/05 01:53:15;;;;;;;5.43;4.50;;;;;;;18.31;60.78;101750.44;5031458;28;20117;-75
2022/09/05 01:56:23;;;;;;;7.43;4.55;;;;;;;18.29;60.87;101752.28;5030360;28;20082;-73
2022/09/05 01:58:51;;;;;;;9.48;4.97;;;;;;;18.23;60.69;101750.78;5025396;28;20050;-73
2022/09/05 02:02:09;;;;;;;7.07;4.78;;;;;;;18.20;60.74;101758.94;5032837;28;20104;-74
2022/09/05 02:05:19;;;;;;;6.88;5.03;;;;;;;18.13;60.89;101757.50;5033216;28;20038;-74
2022/09/05 02:08:26;;;;;;;6.03;4.10;;;;;;;18.07;61.13;101756.00;5023222;28;20042;-74
2022/09/05 02:11:04;;;;;;;7.97;4.63;;;;;;;18.02;61.42;101759.81;5030974;28;20050;-74
2022/09/05 02:13:34;;;;;;;6.20;4.30;;;;;;;17.94;61.44;101755.69;5029307;28;20050;-73
2022/09/05 02:16:17;;;;;;;6.78;4.55;;;;;;;17.88;61.64;101755.94;5042422;28;20034;-71
2022/09/05 02:19:11;;;;;;;6.55;4.70;;;;;;;17.83;61.90;101761.50;5026093;28;20169;-71
2022/09/05 02:22:05;;;;;;;6.78;4.93;;;;;;;17.79;61.96;101767.03;5022780;28;20046;-73
2022/09/05 02:24:43;;;;;;;7.28;5.10;;;;;;;17.74;61.85;101764.59;5027765;28;20395;-73
2022/09/05 02:27:47;;;;;;;7.32;4.53;;;;;;;17.68;61.89;101760.41;5026146;28;20500;-72
2022/09/05 02:30:48;;;;;;;8.15;5.30;;;;;;;17.61;62.04;101761.63;5031588;28;20053;-73
2022/09/05 02:33:51;;;;;;;5.13;4.38;;;;;;;17.53;62.00;101759.31;5031776;28;20497;-73
2022/09/05 02:36:42;;;;;;;8.85;5.00;;;;;;;17.46;62.34;101762.31;5027155;28;20042;-73
2022/09/05 02:39:49;;;;;;;7.22;4.75;;;;;;;17.37;62.82;101760.94;5030671;28;20116;-74
2022/09/05 02:42:50;;;;;;;6.43;4.88;;;;;;;17.31;62.97;101763.84;5031762;28;20038;-74
2022/09/05 02:46:04;;;;;;;5.93;5.07;;;;;;;17.24;63.36;101768.63;5029792;28;20046;-74
2022/09/05 02:49:03;;;;;;;9.27;5.72;;;;;;;17.23;63.99;101764.22;5018343;28;20501;-73
2022/09/05 02:52:04;;;;;;;9.85;5.38;;;;;;;17.22;64.57;101766.00;5031310;28;20046;-74
2022/09/05 02:54:55;;;;;;;7.18;5.45;;;;;;;17.23;64.66;101767.72;5029389;28;20133;-74
2022/09/05 02:58:06;;;;;;;7.45;5.70;;;;;;;17.23;65.04;101757.06;5030367;28;20121;-74
2022/09/05 03:00:56;;;;;;;9.75;5.97;;;;;;;17.22;64.98;101765.13;5029115;28;20038;-74
2022/09/05 03:03:36;;;;;;;8.18;5.90;;;;;;;17.20;65.37;101762.53;5030731;28;20498;-73
2022/09/05 03:06:31;;;;;;;10.82;6.35;;;;;;;17.21;65.76;101764.25;5026519;28;20592;-74
2022/09/05 03:09:24;;;;;;;9.63;7.32;;;;;;;17.25;65.90;101764.13;5019559;28;20038;-74
2022/09/05 03:12:12;;;;;;;9.57;7.03;;;;;;;17.23;65.31;101764.22;5024599;28;20045;-73
2022/09/05 03:15:45;;;;;;;9.23;7.07;;;;;;;17.21;65.23;101758.06;5028123;28;20072;-73
2022/09/05 03:18:59;;;;;;;8.80;6.30;;;;;;;17.17;65.24;101756.47;4991345;28;20822;-76
2022/09/05 03:22:03;;;;;;;8.75;6.55;;;;;;;17.13;65.13;101754.88;5026056;28;20041;-76
2022/09/05 03:25:12;;;;;;;11.05;7.40;;;;;;;17.08;65.43;101765.75;5029575;28;20449;-75
2022/09/05 03:28:16;;;;;;;9.30;6.80;;;;;;;17.03;65.41;101759.72;5028800;28;20054;-75
2022/09/05 03:31:24;;;;;;;8.10;7.22;;;;;;;16.97;65.39;101760.84;5029181;28;20132;-74
2022/09/05 03:34:17;;;;;;;8.40;7.03;;;;;;;16.93;65.76;101769.91;5024605;28;20049;-74
2022/09/05 03:37:38;;;;;;;7.55;6.32;;;;;;;16.87;65.81;101759.47;5021972;28;20063;-75
2022/09/05 03:40:24;;;;;;;9.30;7.20;;;;;;;16.81;65.98;101767.75;5016239;28;20624;-73
2022/09/05 03:43:19;;;;;;;11.65;7.07;;;;;;;16.77;66.06;101769.66;5029859;28;20517;-73
2022/09/05 03:46:00;;;;;;;;;;;;;;;16.69;65.63;101774.44;5030160;28;20494;-74
2022/09/05 03:48:42;;;;;;;10.25;6.05;;;;;;;16.63;66.24;101770.25;5028640;28;19932;-74
2022/09/05 03:51:12;;;;;;;6.97;5.25;;;;;;;16.57;66.83;101782.00;5028539;28;20124;-74
2022/09/05 03:54:35;;;;;;;6.75;5.97;;;;;;;16.52;67.19;101775.13;5028721;28;20046;-73
2022/09/05 03:57:43;;;;;;;7.05;6.03;;;;;;;16.43;67.41;101784.34;5026192;28;20817;-71
2022/09/05 04:00:24;;;;;;;7.68;5.57;;;;;;;16.37;67.87;101776.63;5021992;28;20070;-70
2022/09/05 04:02:57;;;;;;;8.60;6.18;;;;;;;16.33;68.06;101781.19;5028687;28;20038;-71
2022/09/05 04:06:05;;;;;;;7.10;5.55;;;;;;;16.28;68.12;101789.34;5029663;28;20052;-71
2022/09/05 04:09:41;;;;;;;6.40;5.70;;;;;;;16.23;68.42;101785.13;5025554;28;20042;-71
2022/09/05 04:12:29;;;;;;;8.50;6.10;;;;;;;16.11;68.70;101776.72;5028156;28;20050;-70
2022/09/05 04:15:04;;;;;;;7.47;5.20;;;;;;;16.06;69.30;101777.81;5024656;28;20041;-70
2022/09/05 04:17:54;;;;;;;8.15;5.22;;;;;;;16.02;69.44;101778.84;5027033;28;21042;-70
2022/09/05 04:20:54;;;;;;;7.38;5.50;;;;;;;15.94;69.38;101774.72;5022457;28;20932;-71
2022/09/05 04:23:59;;;;;;;10.57;5.25;;;;;;;15.90;69.64;101786.38;5025815;28;20078;-70
2022/09/05 04:26:43;;;;;;;7.10;5.38;;;;;;;15.83;69.85;101780.38;5029469;28;20081;-71
2022/09/05 04:29:26;;;;;;;7.75;5.55;;;;;;;15.80;70.13;101782.28;5028922;28;20093;-70
2022/09/05 04:32:28;;;;;;;10.20;5.70;;;;;;;15.77;70.34;101787.75;5023656;28;20647;-72
2022/09/05 04:35:46;;;;;;;10.73;6.35;;;;;;;15.69;70.42;101788.88;5022553;28;20042;-71
2022/09/05 04:38:32;;;;;;;7.43;5.82;;;;;;;15.65;70.93;101786.38;5026784;28;20624;-72
2022/09/05 04:41:07;;;;;;;9.60;5.65;;;;;;;15.60;71.48;101786.56;5026407;28;20042;-73
2022/09/05 04:43:52;;;;;;;10.43;5.63;;;;;;;15.52;71.57;101788.63;5024167;28;20042;-73
2022/09/05 04:46:46;;;;;;;8.98;6.43;;;;;;;15.48;71.63;101790.53;5043387;28;20046;-73
2022/09/05 04:49:29;;;;;;;12.27;7.82;;;;;;;15.43;71.51;101795.13;5019790;28;20042;-73
2022/09/05 04:52:40;;;;;;;10.93;8.15;;;;;;;15.40;71.40;101797.91;5029370;28;20128;-73
2022/09/05 04:55:42;;;;;;;10.40;7.75;;;;;;;15.42;71.70;101803.16;5022355;28;20125;-73
2022/09/05 04:58:50;;;;;;;9.20;7.50;;;;;;;15.44;72.16;101806.63;5030163;28;20038;-73
2022/09/05 05:01:49;;;;;;;12.20;7.78;;;;;;;15.53;72.53;101811.63;5026526;28;20532;-73
2022/09/05 05:04:36;;;;;;;12.55;6.65;;;;;;;15.58;72.79;101806.16;5019751;28;20047;-72
2022/09/05 05:07:48;;;;;;;13.73;6.82;;;;;;;15.61;72.85;101806.91;5022250;28;20038;-73
2022/09/05 05:10:30;;;;;;;10.43;7.30;;;;;;;15.60;72.67;101801.66;5016857;28;20494;-72
2022/09/05 05:13:29;;;;;;;15.73;8.25;;;;;;;15.61;71.87;101803.38;5030161;28;20520;-72
2022/09/05 05:16:25;;;;;;;13.43;7.95;;;;;;;15.98;71.20;101807.38;5030129;28;20058;-74
2022/09/05 05:19:21;;;;;;;11.10;7.60;;;;;;;16.36;70.25;101801.50;5029347;28;20565;-74
2022/09/05 05:21:55;;;;;;;15.90;8.02;;;;;;;16.81;69.11;101803.22;5029640;28;20046;-74
2022/09/05 05:24:40;;;;;;;;;;;;;;;16.64;69.13;101800.38;5027372;28;20046;-75
2022/09/05 05:27:22;;;;;;;14.60;6.20;;;;;;;16.38;69.55;101802.31;5025471;28;19979;-74
2022/09/05 05:30:06;;;;;;;10.57;6.95;;;;;;;16.25;70.11;101807.22;5029445;28;20082;-77
2022/09/05 05:32:46;;;;;;;8.57;7.03;;;;;;;16.12;70.68;101802.41;5025186;28;20118;-77
2022/09/05 05:35:33;;;;;;;14.45;7.00;;;;;;;16.09;71.07;101804.28;5020235;28;20042;-77
2022/09/05 05:38:38;;;;;;;12.65;7.25;;;;;;;16.10;71.59;101806.91;5019360;28;20554;-76
2022/09/05 05:41:32;;;;;;;9.93;8.23;;;;;;;16.14;72.12;101800.53;5021874;28;20117;-76
2022/09/05 05:44:15;;;;;;;13.77;7.68;;;;;;;16.21;72.12;101803.81;5025706;28;20054;-75
2022/09/05 05:47:07;;;;;;;13.90;7.50;;;;;;;16.32;72.48;101805.19;5017448;28;20101;-75
2022/09/05 05:49:58;;;;;;;9.93;7.47;;;;;;;16.41;71.92;101805.72;5031936;28;20119;-74
2022/09/05 05:53:05;;;;;;;10.68;7.90;;;;;;;16.51;71.69;101818.66;5029683;28;20049;-75
2022/09/05 05:56:16;;;;;;;15.15;8.77;;;;;;;16.63;71.95;101804.84;4996465;28;20227;-75
2022/09/05 05:59:02;;;;;;;12.13;7.90;;;;;;;16.76;71.62;101810.53;5028987;28;20054;-77
2022/09/05 06:01:35;;;;;;;9.93;7.75;;;;;;;16.90;71.52;101812.63;5025958;28;20046;-76
2022/09/05 06:04:54;;;;;;;10.45;7.47;;;;;;;17.04;71.88;101814.75;5032232;28;20081;-76
2022/09/05 06:07:51;;;;;;;19.02;8.45;;;;;;;17.21;71.46;101798.03;5025464;28;20050;-76
2022/09/05 06:11:35;;;;;;;17.35;8.65;;;;;;;17.35;70.90;101810.75;5025622;28;20046;-76
2022/09/05 06:15:02;;;;;;;11.52;7.35;;;;;;;17.51;71.07;101808.28;5032546;28;20449;-76
2022/09/05 06:18:28;;;;;;;19.00;8.90;;;;;;;17.67;70.62;101808.47;5031778;28;20058;-76
2022/09/05 06:21:59;;;;;;;13.10;8.07;;;;;;;17.81;70.42;101813.19;5032545;28;20048;-76
2022/09/05 06:25:06;;;;;;;11.70;7.93;;;;;;;17.97;69.93;101810.72;5032047;28;20520;-76
2022/09/05 06:28:21;;;;;;;14.57;8.50;;;;;;;18.12;69.83;101817.13;5025197;28;20557;-76
2022/09/05 06:31:13;;;;;;;12.75;8.07;;;;;;;18.27;69.54;101816.41;5012906;28;20153;-76
2022/09/05 06:34:24;;;;;;;15.88;8.32;;;;;;;18.43;69.20;101823.69;5022652;28;20587;-77
2022/09/05 06:37:27;;;;;;;21.65;8.90;;;;;;;18.60;68.80;101826.41;5016028;28;20046;-77
2022/09/05 06:40:12;;;;;;;12.27;8.50;;;;;;;18.74;68.74;101831.06;5032454;28;20045;-77
2022/09/05 06:43:12;;;;;;;12.25;7.82;;;;;;;18.87;68.34;101825.97;5029640;28;20050;-75
2022/09/05 06:45:57;;;;;;;12.32;7.78;;;;;;;19.01;68.16;101822.69;5015209;28;20526;-77
2022/09/05 06:48:40;;;;;;;14.57;7.10;;;;;;;19.14;67.83;101816.69;5031623;28;20045;-76
2022/09/05 06:51:43;;;;;;;9.88;7.75;;;;;;;19.33;67.53;101820.13;5047581;28;20049;-76
2022/09/05 06:55:04;;;;;;;11.35;7.47;;;;;;;19.51;66.87;101825.50;5031701;28;20044;-77
2022/09/05 06:58:15;;;;;;;12.95;7.57;;;;;;;19.69;66.70;101832.53;5031815;28;20046;-77
2022/09/05 07:00:51;;;;;;;10.43;6.30;;;;;;;19.84;66.09;101833.53;5030760;28;20042;-77
2022/09/05 07:03:52;;;;;;;16.63;7.30;;;;;;;20.04;65.96;101836.97;5031711;28;20177;-77
2022/09/05 07:06:44;;;;;;;12.77;7.45;;;;;;;20.21;65.57;101840.50;5031830;28;20054;-77
2022/09/05 07:10:02;;;;;;;14.05;6.82;;;;;;;20.40;64.92;101840.34;5030044;28;20069;-77
2022/09/05 07:13:18;;;;;;;12.23;7.90;;;;;;;20.57;63.99;101842.09;5031850;28;20038;-77
2022/09/05 07:16:04;;;;;;;14.30;8.02;;;;;;;20.70;64.18;101840.44;5030693;28;20132;-77
2022/09/05 07:18:51;;;;;;;9.23;6.47;;;;;;;20.88;63.75;101843.03;5029535;28;20050;-77
2022/09/05 07:21:49;;;;;;;19.20;7.53;;;;;;;21.07;63.12;101843.69;5031477;28;20049;-76
2022/09/05 07:24:26;;;;;;;16.30;7.07;;;;;;;21.23;62.71;101845.44;5030412;28;20117;-77
2022/09/05 07:27:50;;;;;;;12.23;6.70;;;;;;;21.41;62.43;101848.84;5032046;28;20564;-77
2022/09/05 07:30:45;;;;;;;7.80;6.55;;;;;;;21.59;62.00;101846.00;5031004;28;20061;-77
2022/09/05 07:33:20;;;;;;;14.50;6.53;;;;;;;21.74;61.09;101847.78;5032237;28;20046;-77
2022/09/05 07:35:50;;;;;;;10.65;5.78;;;;;;;21.86;60.47;101848.81;5031922;28;20066;-77
2022/09/05 07:38:28;;;;;;;11.23;5.72;;;;;;;21.98;60.23;101845.38;5030752;28;20053;-77
2022/09/05 07:41:33;;;;;;;9.95;5.32;;;;;;;22.09;59.99;101836.63;5031102;28;20048;-77
2022/09/05 07:44:10;;;;;;;9.95;4.70;;;;;;;22.22;59.38;101830.47;5031537;28;20050;-77
2022/09/05 07:46:40;;;;;;;9.57;4.72;;;;;;;22.36;58.66;101838.53;5031403;28;20104;-77
2022/09/05 07:49:20;;;;;;;15.90;4.53;;;;;;;22.52;58.60;101834.84;5027906;28;20136;-77
2022/09/05 07:51:55;;;;;;;7.90;3.75;;;;;;;22.63;57.88;101837.69;5030892;28;20097;-77
2022/09/05 07:54:45;;;;;;;8.18;4.05;;;;;;;22.80;57.29;101841.97;5021111;28;20053;-77
2022/09/05 07:57:41;;;;;;;7.60;3.65;;;;;;;22.94;56.60;101839.19;5011872;28;20046;-77
2022/09/05 08:00:25;;;;;;;6.78;3.45;;;;;;;23.10;55.51;101838.19;5018345;28;20030;-77
2022/09/05 08:03:09;;;;;;;9.02;3.28;;;;;;;23.22;55.38;101831.13;5031427;28;20088;-78
2022/09/05 08:05:44;;;;;;;8.95;3.38;;;;;;;23.35;54.73;101837.38;5031822;28;20513;-77
2022/09/05 08:08:21;;;;;;;11.63;3.00;;;;;;;23.50;55.03;101842.69;5032232;28;20050;-77
2022/09/05 08:11:00;;;;;;;5.10;2.80;;;;;;;23.65;53.06;101836.22;5030351;28;20053;-77
2022/09/05 08:14:02;;;;;;;6.90;3.13;;;;;;;23.81;52.33;101830.59;5031695;28;20117;-76
2022/09/05 08:16:50;;;;;;;6.00;2.60;;;;;;;23.93;51.45;101826.16;5031388;28;20571;-77
2022/09/05 08:19:38;;;;;;;7.65;2.70;;;;;;;24.09;50.43;101830.50;5031114;28;20048;-76
2022/09/05 08:22:15;;;;;;;5.28;2.45;;;;;;;24.18;50.19;101827.13;5031471;28;20601;-77
2022/09/05 08:24:59;;;;;;;4.07;2.35;;;;;;;24.27;49.98;101817.50;5030326;28;20073;-77
2022/09/05 08:28:00;;;;;;;7.03;2.10;;;;;;;24.38;49.89;101820.28;5030632;28;20041;-77
2022/09/05 08:30:42;;;;;;;7.28;2.60;;;;;;;24.49;48.81;101819.50;5030386;28;20045;-77
2022/09/05 08:33:21;;;;;;;9.85;3.00;;;;;;;24.60;49.09;101824.06;5031870;28;20125;-78
2022/09/05 08:36:02;;;;;;;5.13;2.60;;;;;;;24.73;49.60;101827.59;5030958;28;20125;-78
2022/09/05 08:38:35;;;;;;;16.65;3.30;;;;;;;24.92;48.50;101831.59;5031861;28;20116;-79
2022/09/05 08:41:26;;;;;;;7.07;2.60;;;;;;;25.07;48.30;101833.16;5030599;28;20046;-78
2022/09/05 08:44:54;;;;;;;6.80;2.80;;;;;;;25.33;47.71;101838.34;5017643;28;20049;-78
2022/09/05 08:48:09;;;;;;;5.72;2.20;;;;;;;25.56;47.80;101838.44;5021032;28;20084;-79
2022/09/05 08:51:05;;;;;;;5.03;1.90;;;;;;;25.77;47.00;101830.47;5030855;28;20998;-78
2022/09/05 08:54:13;;;;;;;6.13;1.90;;;;;;;25.99;44.98;101826.03;5031548;28;20129;-78
2022/09/05 08:56:57;;;;;;;8.50;2.20;;;;;;;26.12;45.01;101825.94;5030657;28;20042;-78
2022/09/05 09:00:00;;;;;;;5.13;1.85;;;;;;;26.26;44.39;101822.97;5031434;28;20056;-78
2022/09/05 09:03:14;;;;;;;10.48;2.20;;;;;;;26.44;44.40;101814.31;5025250;28;20137;-77
2022/09/05 09:06:15;;;;;;;4.55;1.80;;;;;;;26.69;42.02;101812.28;5030333;28;20049;-78
2022/09/05 09:08:51;;;;;;;5.45;1.70;;;;;;;26.79;41.41;101810.56;5030089;28;20124;-78
2022/09/05 09:11:56;;;;;;;7.95;1.70;;;;;;;26.88;41.50;101809.78;5043957;28;20052;-77
2022/09/05 09:14:50;;;;;;;4.85;1.77;;;;;;;26.99;40.96;101810.69;5044226;28;20049;-77
2022/09/05 09:17:44;;;;;;;6.68;1.80;;;;;;;27.10;41.54;101805.22;5031544;28;20058;-76
2022/09/05 09:20:21;;;;;;;;;;;;;;;27.17;41.32;101795.59;5034294;28;20137;-77
2022/09/05 09:23:23;;;;;;;2.72;1.40;;;;;;;27.27;40.89;101796.50;5033621;28;20440;-77
2022/09/05 09:26:15;;;;;;;2.97;1.45;;;;;;;27.39;40.50;101794.56;5013850;28;20518;-77
2022/09/05 09:28:51;;;;;;;6.97;1.88;;;;;;;27.53;40.64;101797.94;5031712;28;20054;-77
2022/09/05 09:32:03;;;;;;;4.82;1.60;;;;;;;27.65;40.32;101796.88;5031449;28;20045;-78
2022/09/05 09:34:43;;;;;;;3.63;1.50;;;;;;;27.84;39.77;101789.81;5031715;28;20042;-78
2022/09/05 09:37:51;;;;;;;3.97;1.42;;;;;;;28.03;37.55;101795.28;5030629;28;20034;-76
2022/09/05 09:40:25;;;;;;;4.22;1.70;;;;;;;28.10;38.00;101794.75;5030786;28;20054;-77
2022/09/05 09:43:03;;;;;;;2.65;1.25;;;;;;;28.22;38.24;101796.38;5032220;28;20038;-78
2022/09/05 09:45:54;;;;;;;9.85;6.22;;;;;;;28.29;38.21;101794.78;5032623;28;20516;-78
2022/09/05 09:48:45;;;;;;;2.67;1.27;;;;;;;28.37;37.02;101794.09;5023129;28;20042;-78
2022/09/05 09:51:21;;;;;;;3.20;1.30;;;;;;;28.55;35.10;101791.56;5032559;28;20108;-77
2022/09/05 09:54:34;;;;;;;4.80;1.60;;;;;;;28.62;34.66;101792.69;5032991;28;20935;-78
2022/09/05 09:57:44;;;;;;;6.38;1.42;;;;;;;28.68;35.43;101788.56;5023652;28;20821;-77
2022/09/05 10:00:22;;;;;;;21.98;3.22;;;;;;;28.77;34.27;101776.88;5032151;28;20038;-78
2022/09/05 10:03:41;;;;;;;5.13;1.23;;;;;;;28.87;34.38;101776.00;5032246;28;20888;-77
2022/09/05 10:07:08;;;;;;;7.53;1.70;;;;;;;29.07;33.78;101777.69;5024893;28;20042;-78
2022/09/05 10:10:15;;;;;;;6.60;1.60;;;;;;;29.27;34.00;101785.78;5013545;28;20042;-78
2022/09/05 10:13:46;;;;;;;12.18;2.25;;;;;;;29.42;33.96;101778.03;5021925;28;20042;-78
2022/09/05 10:16:25;;;;;;;3.78;1.10;;;;;;;29.53;32.20;101772.44;5028522;28;20042;-77
2022/09/05 10:19:48;;;;;;;4.97;1.10;;;;;;;29.63;29.38;101761.53;5031829;28;20121;-77
2022/09/05 10:23:02;;;;;;;3.17;1.00;;;;;;;29.63;30.21;101764.25;5012262;28;20052;-77
2022/09/05 10:25:56;;;;;;;13.60;1.98;;;;;;;29.69;30.85;101763.63;5013313;28;20081;-79
2022/09/05 10:28:41;;;;;;;2.63;1.05;;;;;;;29.80;30.45;101767.16;5022492;28;20042;-79
2022/09/05 10:31:19;;;;;;;3.45;1.00;;;;;;;29.83;29.56;101761.44;5029956;28;20133;-80
2022/09/05 10:34:19;;;;;;;3.97;0.90;;;;;;;29.88;29.28;101750.97;5033363;28;20509;-78
2022/09/05 10:37:11;;;;;;;1.10;0.98;;;;;;;29.96;29.05;101756.53;5032214;28;20077;-79
2022/09/05 10:39:47;;;;;;;2.78;1.20;;;;;;;30.04;29.29;101745.75;5033377;28;20417;-80
2022/09/05 10:42:48;;;;;;;1.52;1.00;;;;;;;30.12;27.97;101746.84;5033391;28;20081;-79
2022/09/05 10:45:48;;;;;;;2.08;0.90;;;;;;;30.21;28.73;101748.63;5031251;28;20057;-79
2022/09/05 10:48:50;;;;;;;4.60;1.00;;;;;;;30.31;28.14;101738.53;5033031;28;20065;-78
2022/09/05 10:51:43;;;;;;;1.30;0.70;;;;;;;30.39;28.10;101737.75;5032735;28;20213;-79
2022/09/05 10:54:42;;;;;;;0.80;0.70;;;;;;;30.47;27.52;101735.13;5033689;28;20072;-78
2022/09/05 10:57:32;;;;;;;1.58;0.93;;;;;;;30.55;27.13;101736.22;5031283;28;20038;-80
2022/09/05 11:00:50;;;;;;;2.13;0.85;;;;;;;30.57;27.26;101726.91;5016314;28;20062;-79
2022/09/05 11:03:55;;;;;;;7.38;1.40;;;;;;;30.62;28.16;101737.31;5013243;28;20049;-79
2022/09/05 11:06:50;;;;;;;4.25;1.00;;;;;;;30.68;27.77;101726.63;5026197;28;20041;-80
2022/09/05 11:09:40;;;;;;;10.38;1.60;;;;;;;30.72;26.87;101729.91;5032254;28;20046;-79
2022/09/05 11:12:28;;;;;;;5.65;1.35;;;;;;;30.79;26.85;101719.22;5031881;28;20122;-80
2022/09/05 11:14:59;;;;;;;2.55;0.90;;;;;;;30.88;26.04;101721.00;5030701;28;20037;-80
2022/09/05 11:17:38;;;;;;;9.52;1.08;;;;;;;30.86;26.14;101720.31;5030679;28;20056;-78
2022/09/05 11:20:50;;;;;;;2.83;0.90;;;;;;;30.86;26.84;101714.00;5028026;28;20132;-79
2022/09/05 11:23:40;;;;;;;4.25;1.00;;;;;;;30.80;26.86;101710.94;5029967;28;20104;-79
2022/09/05 11:26:36;;;;;;;21.10;1.83;;;;;;;30.89;25.64;101708.25;5030698;28;20052;-79
2022/09/05 11:29:12;;;;;;;6.22;1.20;;;;;;;30.91;25.64;101712.50;5022156;28;20046;-81
2022/09/05 11:32:25;;;;;;;25.92;2.40;;;;;;;30.95;26.76;101713.91;5027809;28;20050;-79
2022/09/05 11:36:04;;;;;;;9.07;1.27;;;;;;;31.14;25.71;101715.56;5012613;28;20536;-78
2022/09/05 11:39:22;;;;;;;1.65;0.88;;;;;;;31.21;25.98;101714.94;5011811;28;20045;-78
2022/09/05 11:42:44;;;;;;;2.55;1.00;;;;;;;31.25;25.37;101702.69;5028761;28;20042;-80
2022/09/05 11:45:23;;;;;;;8.05;1.38;;;;;;;31.23;25.52;101705.59;5023249;28;20504;-78
2022/09/05 11:48:16;;;;;;;3.95;1.23;;;;;;;31.41;25.46;101704.63;5027648;28;20042;-79
2022/09/05 11:51:05;;;;;;;6.38;1.30;;;;;;;31.49;24.74;101704.66;5013536;28;20034;-79
2022/09/05 11:54:02;;;;;;;5.88;1.17;;;;;;;31.52;24.91;101701.63;5027945;28;20130;-78
2022/09/05 11:57:09;;;;;;;3.63;1.00;;;;;;;31.68;25.11;101698.13;5027658;28;20076;-79
2022/09/05 12:00:28;;;;;;;5.70;1.10;;;;;;;31.80;24.29;101701.41;5025465;28;20242;-80
2022/09/05 12:03:33;;;;;;;1.38;0.82;;;;;;;31.83;23.41;101701.06;5021673;28;20786;-79
2022/09/05 12:06:56;;;;;;;4.32;0.88;;;;;;;31.91;24.12;101695.63;5026501;28;20793;-80
2022/09/05 12:09:58;;;;;;;7.50;1.15;;;;;;;32.03;24.60;101707.09;5030392;28;20037;-79
2022/09/05 12:12:38;;;;;;;6.05;1.30;;;;;;;32.13;23.94;101697.91;5029983;28;20046;-80
2022/09/05 12:15:26;;;;;;;2.58;0.80;;;;;;;32.11;23.32;101697.22;5031126;28;20049;-79
2022/09/05 12:18:14;;;;;;;16.02;1.73;;;;;;;32.05;23.18;101691.41;5028808;28;20061;-81
2022/09/05 12:21:43;;;;;;;19.77;2.05;;;;;;;32.00;23.23;101684.78;5022368;28;20117;-80
2022/09/05 12:24:28;;;;;;;48.22;3.58;;;;;;;32.10;23.33;101687.31;5023511;28;20041;-79
2022/09/05 12:27:19;;;;;;;10.32;1.55;;;;;;;32.18;23.35;101687.31;5025883;28;20125;-80
2022/09/05 12:30:13;;;;;;;20.88;1.73;;;;;;;32.30;23.48;101682.44;5026168;28;20038;-77
2022/09/05 12:33:13;;;;;;;17.17;1.60;;;;;;;32.39;22.71;101692.31;5030175;28;20140;-74
2022/09/05 12:36:13;;;;;;;8.27;1.23;;;;;;;32.34;23.08;101686.50;5003501;28;20501;-74
2022/09/05 12:39:24;;;;;;;7.90;1.88;;;;;;;32.44;23.44;101689.06;5029779;28;20061;-73
2022/09/05 12:42:38;;;;;;;16.33;2.55;;;;;;;32.55;22.30;101683.28;5026941;28;20040;-74
2022/09/05 12:45:44;;;;;;;4.00;0.80;;;;;;;32.67;22.79;101690.06;5012612;28;20049;-77
2022/09/05 12:48:44;;;;;;;4.03;0.93;;;;;;;32.63;21.90;101679.66;5018334;28;20503;-78
2022/09/05 12:51:27;;;;;;;1.10;0.70;;;;;;;32.70;21.14;101679.84;5033492;28;20062;-78
2022/09/05 12:54:44;;;;;;;1.80;0.80;;;;;;;32.64;20.04;101681.38;5034045;28;20042;-78
2022/09/05 12:57:26;;;;;;;5.70;1.10;;;;;;;32.69;21.11;101676.25;5031021;28;20049;-78
2022/09/05 13:00:22;;;;;;;3.70;0.90;;;;;;;32.87;21.62;101667.03;5033143;28;20049;-78
2022/09/05 13:03:20;;;;;;;9.95;1.40;;;;;;;33.02;21.71;101667.16;5032509;28;20045;-79
2022/09/05 13:06:08;;;;;;;8.00;1.30;;;;;;;33.13;21.72;101673.09;5029962;28;20050;-78
2022/09/05 13:08:47;;;;;;;6.50;1.58;;;;;;;33.22;21.06;101670.34;5033440;28;20453;-79
2022/09/05 13:11:30;;;;;;;12.77;1.60;;;;;;;33.17;21.85;101670.00;5034089;28;20493;-78
2022/09/05 13:14:35;;;;;;;12.52;2.17;;;;;;;33.13;21.17;101656.69;5020305;28;20505;-80
2022/09/05 13:18:00;;;;;;;40.35;3.00;;;;;;;33.21;22.36;101661.28;5032083;28;20057;-78
2022/09/05 13:20:35;;;;;;;10.98;1.17;;;;;;;33.32;22.35;101648.28;5029155;28;20041;-78
2022/09/05 13:23:48;;;;;;;3.35;1.02;;;;;;;33.53;22.03;101655.84;5033488;28;20093;-80
2022/09/05 13:26:38;;;;;;;12.43;1.45;;;;;;;33.60;22.02;101644.03;5036789;28;20046;-77
2022/09/05 13:29:20;;;;;;;7.40;0.80;;;;;;;33.65;21.46;101638.03;5044468;28;20130;-80
2022/09/05 13:31:52;;;;;;;1.83;0.90;;;;;;;33.67;20.81;101640.59;5052674;28;20504;-78
2022/09/05 13:34:54;;;;;;;3.22;1.40;;;;;;;33.35;21.81;101646.06;5051862;28;20483;-80
2022/09/05 13:37:46;;;;;;;18.95;2.22;;;;;;;33.23;21.48;101647.44;5049116;28;20041;-81
2022/09/05 13:40:44;;;;;;;2.45;1.00;;;;;;;33.34;21.55;101640.78;5053020;28;20583;-80